Vernon, New Jersey
Current Conditions -  °F | °C
As of 5:53 PM on Saturday 25 Oct 2014 (Local Time) from KFWN Reporting Station
Few Clouds Few Clouds  
Wind Chill: 65°   Ceiling: Unl
Heat Index: 65°   Visibility: 10mi
Dew Point: 42°   Wind: 0mph
Humidity: 43%   Direction: NA
Pressure: 29.63"   Gusts: NA
Location:  41.2°N, 74.48°W
Report Text: KFWN 252153Z AUTO 00000KT 10SM FEW075 18/06 A2963 RMK AO2 SLP033 T01830056
Loading
Personal Weather Stations






























Interactive Weather Map
Tropical Storm Tracking
New forecast layout! Learn more

10-Day Weather Forecast

Advertisements
Track Severe Weather on mobile